EIKN

Ireland West Knock Airport

Charleston, Ireland
TAF EIKN 211700Z 2118/2218 36008KT 9999 SCT040
Issued Valid From Valid To
Jun-21 @ 17:00 UTC
(an hour ago)
Jun-21 @ 18:00 UTC
(14 minutes ago)
Jun-22 @ 18:00 UTC
(in 24 hours)
Jun-21 @ 18:00 to Jun-22 @ 18:00
TAF EIKN 211700Z 2118/2218 36008KT 9999 SCT040
Wind Visibility Clouds
360° at 8 knots 10,000+ meters
  • Scattered at 4,000' AGL
TAF EIKN 211700Z 2118/2218 36008KT 9999 SCT040
Issued Jun-21 @ 17:00 UTC
(an hour ago)
Valid From Jun-21 @ 18:00 UTC
(14 minutes ago)
Valid To Jun-22 @ 18:00 UTC
(in 24 hours)
Jun-21 @ 18:00 - Jun-22 @ 18:00
Wind Visibility
360° at 8 knots 10,000+ meters
Clouds
  • Scattered at 4,000' AGL